createdAt,value
2022-12-23T00:00:10.016Z,8.00
2022-12-23T00:01:09.984Z,11.30
2022-12-23T00:02:10.109Z,8.10
2022-12-23T00:03:11.026Z,8.00
2022-12-23T00:04:09.999Z,7.90
2022-12-23T00:05:09.955Z,8.70
2022-12-23T00:06:09.926Z,7.20
2022-12-23T00:07:09.906Z,7.00
2022-12-23T00:08:09.896Z,7.20
2022-12-23T00:09:09.866Z,6.90
2022-12-23T00:10:09.869Z,7.10
2022-12-23T00:11:09.847Z,7.00
2022-12-23T00:12:09.849Z,7.80
2022-12-23T00:13:09.826Z,7.90
2022-12-23T00:14:12.172Z,6.80
2022-12-23T00:15:10.796Z,7.10
2022-12-23T00:16:10.781Z,7.20
2022-12-23T00:17:22.039Z,6.30
2022-12-23T00:18:11.006Z,6.50
2022-12-23T00:19:09.741Z,6.60
2022-12-23T00:20:09.733Z,6.60
2022-12-23T00:21:09.711Z,6.60
2022-12-23T00:22:10.672Z,6.90
2022-12-23T00:23:09.696Z,6.50
2022-12-23T00:24:09.680Z,10.80
2022-12-23T00:25:09.671Z,6.40
2022-12-23T00:26:09.671Z,7.20
2022-12-23T00:27:09.651Z,7.40
2022-12-23T00:28:09.627Z,7.00
2022-12-23T00:29:09.623Z,7.60
2022-12-23T00:30:09.615Z,6.00
2022-12-23T00:31:09.671Z,7.20
2022-12-23T00:32:09.663Z,6.10
2022-12-23T00:33:09.618Z,6.30
2022-12-23T00:34:09.566Z,6.40
2022-12-23T00:35:09.533Z,9.40
2022-12-23T00:36:09.859Z,6.50
2022-12-23T00:37:09.512Z,12.60
2022-12-23T00:38:09.532Z,10.30
2022-12-23T00:39:09.478Z,6.50
2022-12-23T00:40:09.474Z,7.80
2022-12-23T00:41:09.451Z,6.10
2022-12-23T00:42:09.450Z,7.00
2022-12-23T00:43:09.424Z,10.50
2022-12-23T00:44:09.423Z,8.70
2022-12-23T00:45:09.414Z,5.90
2022-12-23T00:46:09.490Z,8.20
2022-12-23T00:47:09.389Z,5.80
2022-12-23T00:48:09.356Z,6.30
2022-12-23T00:49:09.352Z,6.20
2022-12-23T00:50:09.333Z,11.30
2022-12-23T00:51:09.342Z,7.20
2022-12-23T00:52:09.318Z,6.00
2022-12-23T00:53:09.300Z,7.60
2022-12-23T00:54:09.277Z,5.60
2022-12-23T00:55:09.285Z,6.00
2022-12-23T00:56:09.246Z,5.70
2022-12-23T00:57:09.256Z,7.50
2022-12-23T00:58:09.489Z,14.70
2022-12-23T00:59:09.225Z,6.00
2022-12-23T01:00:09.203Z,7.40
2022-12-23T01:01:09.220Z,5.60
2022-12-23T01:02:09.322Z,6.20
2022-12-23T01:03:09.275Z,6.00
2022-12-23T01:04:09.147Z,11.70
2022-12-23T01:05:09.168Z,5.40
2022-12-23T01:06:09.129Z,5.90
2022-12-23T01:07:09.131Z,6.70
2022-12-23T01:08:09.092Z,8.40
2022-12-23T01:09:09.093Z,7.80
2022-12-23T01:10:09.090Z,12.80
2022-12-23T01:11:09.075Z,14.60
2022-12-23T01:12:09.080Z,10.10
2022-12-23T01:13:09.038Z,6.50
2022-12-23T01:14:09.021Z,13.40
2022-12-23T01:15:09.241Z,17.70
2022-12-23T01:16:15.040Z,16.80
2022-12-23T01:17:10.042Z,11.60
2022-12-23T01:18:08.972Z,8.60
2022-12-23T01:19:08.956Z,12.00
2022-12-23T01:20:08.947Z,6.70
2022-12-23T01:21:08.966Z,7.40
2022-12-23T01:22:09.894Z,6.30
2022-12-23T01:23:08.913Z,16.40
2022-12-23T01:24:08.913Z,11.70
2022-12-23T01:25:08.881Z,11.90
2022-12-23T01:26:08.879Z,12.00
2022-12-23T01:27:08.881Z,19.00
2022-12-23T01:28:08.841Z,11.00
2022-12-23T01:29:08.866Z,15.30
2022-12-23T01:30:08.831Z,16.50
2022-12-23T01:31:08.797Z,18.10
2022-12-23T01:32:08.851Z,14.00
2022-12-23T01:33:08.774Z,20.70
2022-12-23T01:34:08.765Z,21.30
2022-12-23T01:35:08.746Z,19.70
2022-12-23T01:36:08.729Z,14.20
2022-12-23T01:37:08.731Z,12.40
2022-12-23T01:38:08.700Z,15.30
2022-12-23T01:39:08.700Z,16.60
2022-12-23T01:40:08.692Z,19.30
2022-12-23T01:41:08.665Z,19.60
2022-12-23T01:42:08.660Z,20.50
2022-12-23T01:43:08.647Z,24.80
2022-12-23T01:44:08.629Z,11.70
2022-12-23T01:45:08.621Z,12.50
2022-12-23T01:46:08.660Z,23.30
2022-12-23T01:47:08.602Z,19.20
2022-12-23T01:48:08.571Z,15.00
2022-12-23T01:49:08.562Z,17.20
2022-12-23T01:50:08.563Z,12.50
2022-12-23T01:51:08.531Z,15.00
2022-12-23T01:52:08.548Z,15.20
2022-12-23T01:53:08.766Z,13.90
2022-12-23T01:54:08.535Z,26.10
2022-12-23T01:55:08.504Z,12.30
2022-12-23T01:56:08.476Z,17.80
2022-12-23T01:57:08.702Z,12.30
2022-12-23T01:58:08.472Z,10.30
2022-12-23T01:59:08.431Z,22.60
2022-12-23T02:00:08.521Z,21.60
2022-12-23T02:01:08.507Z,18.40
2022-12-23T02:02:08.531Z,7.80
2022-12-23T02:03:08.485Z,10.00
2022-12-23T02:04:08.355Z,10.80
2022-12-23T02:05:08.340Z,12.90
2022-12-23T02:06:08.333Z,12.80
2022-12-23T02:07:08.345Z,18.30
2022-12-23T02:08:08.312Z,6.60
2022-12-23T02:09:08.293Z,8.60
2022-12-23T02:10:08.290Z,18.40
2022-12-23T02:11:08.265Z,17.70
2022-12-23T02:12:08.286Z,14.20
2022-12-23T02:13:08.244Z,19.40
2022-12-23T02:14:08.225Z,20.40
2022-12-23T02:15:09.194Z,12.30
2022-12-23T02:16:08.196Z,21.50
2022-12-23T02:17:08.244Z,9.60
2022-12-23T02:18:08.205Z,6.50
2022-12-23T02:19:08.180Z,9.60
2022-12-23T02:20:09.107Z,11.20
2022-12-23T02:21:08.149Z,11.10
2022-12-23T02:22:08.156Z,26.60
2022-12-23T02:23:08.117Z,5.50
2022-12-23T02:24:08.100Z,13.30
2022-12-23T02:25:08.086Z,14.30
2022-12-23T02:26:08.078Z,7.80
2022-12-23T02:27:08.081Z,8.60
2022-12-23T02:28:08.039Z,8.00
2022-12-23T02:29:08.045Z,10.90
2022-12-23T02:30:08.031Z,11.50
2022-12-23T02:31:08.076Z,9.20
2022-12-23T02:32:08.001Z,10.00
2022-12-23T02:33:07.984Z,12.30
2022-12-23T02:34:07.967Z,10.40
2022-12-23T02:35:07.954Z,11.40
2022-12-23T02:36:07.938Z,17.30
2022-12-23T02:37:07.931Z,11.80
2022-12-23T02:38:07.926Z,27.30
2022-12-23T02:39:07.914Z,19.80
2022-12-23T02:40:07.890Z,8.00
2022-12-23T02:41:07.885Z,12.10
2022-12-23T02:42:07.878Z,12.30
2022-12-23T02:43:07.855Z,9.40
2022-12-23T02:44:07.841Z,6.30
2022-12-23T02:45:07.823Z,10.20
2022-12-23T02:46:07.870Z,17.20
2022-12-23T02:47:07.807Z,11.90
2022-12-23T02:48:07.796Z,7.50
2022-12-23T02:49:07.772Z,14.10
2022-12-23T02:50:07.752Z,11.80
2022-12-23T02:51:07.753Z,8.50
2022-12-23T02:52:07.729Z,19.30
2022-12-23T02:53:07.883Z,16.00
2022-12-23T02:54:07.703Z,11.80
2022-12-23T02:55:07.693Z,9.70
2022-12-23T02:56:07.682Z,11.50
2022-12-23T02:57:07.699Z,19.90
2022-12-23T02:58:07.654Z,12.20
2022-12-23T02:59:07.653Z,13.80
2022-12-23T03:00:08.577Z,10.60
2022-12-23T03:01:07.661Z,15.80
2022-12-23T03:02:07.677Z,7.40
2022-12-23T03:03:07.665Z,10.30
2022-12-23T03:04:07.670Z,17.60
2022-12-23T03:05:07.557Z,13.60
2022-12-23T03:06:07.548Z,11.20
2022-12-23T03:07:09.080Z,7.50
2022-12-23T03:08:07.529Z,11.00
2022-12-23T03:09:07.509Z,12.30
2022-12-23T03:10:07.499Z,10.40
2022-12-23T03:11:07.487Z,5.30
2022-12-23T03:12:07.480Z,9.30
2022-12-23T03:13:07.449Z,5.00
2022-12-23T03:14:07.450Z,8.90
2022-12-23T03:15:07.439Z,11.10
2022-12-23T03:16:07.472Z,15.90
2022-12-23T03:17:07.416Z,14.00
2022-12-23T03:18:07.401Z,12.30
2022-12-23T03:19:07.382Z,11.10
2022-12-23T03:20:07.363Z,17.40
2022-12-23T03:21:07.362Z,6.80
2022-12-23T03:22:07.351Z,7.10
2022-12-23T03:23:07.342Z,5.20
2022-12-23T03:24:07.328Z,15.10
2022-12-23T03:25:07.308Z,5.80
2022-12-23T03:26:07.273Z,12.70
2022-12-23T03:27:07.290Z,5.20
2022-12-23T03:28:07.262Z,9.00
2022-12-23T03:29:07.243Z,4.20
2022-12-23T03:30:07.221Z,8.40
2022-12-23T03:31:07.293Z,6.00
2022-12-23T03:32:07.212Z,5.40
2022-12-23T03:33:07.200Z,5.10
2022-12-23T03:34:07.177Z,5.60
2022-12-23T03:35:07.166Z,10.70
2022-12-23T03:36:07.141Z,13.20
2022-12-23T03:37:07.155Z,7.90
2022-12-23T03:38:07.111Z,14.50
2022-12-23T03:39:07.120Z,4.70
2022-12-23T03:40:07.092Z,5.00
2022-12-23T03:41:07.084Z,10.10
2022-12-23T03:42:07.061Z,5.70
2022-12-23T03:43:07.055Z,10.10
2022-12-23T03:44:07.040Z,4.80
2022-12-23T03:46:08.069Z,7.60
2022-12-23T03:47:07.020Z,4.70
2022-12-23T03:48:06.996Z,10.20
2022-12-23T03:49:07.023Z,5.90
2022-12-23T03:50:06.961Z,11.80
2022-12-23T03:51:07.186Z,5.50
2022-12-23T03:52:07.891Z,4.70
2022-12-23T03:53:07.199Z,8.00
2022-12-23T03:54:07.196Z,4.10
2022-12-23T03:55:06.912Z,5.00
2022-12-23T03:56:06.876Z,12.30
2022-12-23T03:57:06.907Z,17.70
2022-12-23T03:58:07.119Z,6.50
2022-12-23T03:59:06.848Z,8.00
2022-12-23T04:00:06.840Z,5.90
2022-12-23T04:01:06.842Z,5.10
2022-12-23T04:02:06.956Z,5.30
2022-12-23T04:03:06.889Z,11.20
2022-12-23T04:04:06.897Z,7.70
2022-12-23T04:05:06.773Z,6.40
2022-12-23T04:06:06.761Z,5.90
2022-12-23T04:07:06.760Z,4.50
2022-12-23T04:08:06.755Z,15.80
2022-12-23T04:09:06.741Z,4.60
2022-12-23T04:10:06.988Z,5.00
2022-12-23T04:11:06.697Z,8.80
2022-12-23T04:12:06.691Z,3.20
2022-12-23T04:13:06.660Z,9.50
2022-12-23T04:14:06.658Z,5.10
2022-12-23T04:15:12.543Z,3.40
2022-12-23T04:16:07.711Z,4.80
2022-12-23T04:17:06.632Z,3.00
2022-12-23T04:18:07.439Z,2.80
2022-12-23T04:19:06.593Z,3.50
2022-12-23T04:20:06.570Z,4.80
2022-12-23T04:21:06.575Z,3.00
2022-12-23T04:22:06.555Z,5.10
2022-12-23T04:23:06.544Z,3.50
2022-12-23T04:24:06.523Z,12.10
2022-12-23T04:25:06.527Z,3.90
2022-12-23T04:26:07.159Z,4.20
2022-12-23T04:27:06.496Z,5.80
2022-12-23T04:28:06.473Z,3.90
2022-12-23T04:29:06.455Z,9.20
2022-12-23T04:30:06.466Z,6.60
2022-12-23T04:31:06.514Z,2.60
2022-12-23T04:32:06.428Z,10.00
2022-12-23T04:33:06.412Z,2.90
2022-12-23T04:34:06.392Z,6.70
2022-12-23T04:35:06.386Z,2.80
2022-12-23T04:36:06.368Z,8.70
2022-12-23T04:37:06.362Z,4.10
2022-12-23T04:38:06.358Z,3.30
2022-12-23T04:39:06.331Z,2.60
2022-12-23T04:40:06.322Z,7.10
2022-12-23T04:41:06.301Z,3.40
2022-12-23T04:42:06.315Z,5.10
2022-12-23T04:43:06.289Z,2.80
2022-12-23T04:44:06.266Z,5.50
2022-12-23T04:45:06.249Z,6.20
2022-12-23T04:46:06.342Z,4.10
2022-12-23T04:47:07.254Z,6.40
2022-12-23T04:48:06.221Z,2.60
2022-12-23T04:49:06.206Z,7.80
2022-12-23T04:50:07.130Z,2.80
2022-12-23T04:51:06.190Z,7.20
2022-12-23T04:52:06.162Z,7.10
2022-12-23T04:53:06.393Z,4.80
2022-12-23T04:54:06.126Z,2.90
2022-12-23T04:55:06.112Z,2.80
2022-12-23T04:56:06.114Z,2.80
2022-12-23T04:57:06.096Z,3.50
2022-12-23T04:58:06.081Z,7.70
2022-12-23T04:59:06.065Z,6.10
2022-12-23T05:00:06.073Z,3.70
2022-12-23T05:01:06.092Z,3.60
2022-12-23T05:02:06.274Z,9.00
2022-12-23T05:03:06.181Z,3.50
2022-12-23T05:04:06.008Z,2.50
2022-12-23T05:05:05.997Z,8.10
2022-12-23T05:06:06.942Z,4.50
2022-12-23T05:07:05.978Z,8.50
2022-12-23T05:08:05.974Z,4.40
2022-12-23T05:09:05.935Z,2.60
2022-12-23T05:10:05.937Z,6.50
2022-12-23T05:11:05.905Z,2.90
2022-12-23T05:12:05.910Z,2.50
2022-12-23T05:13:05.876Z,7.60
2022-12-23T05:14:06.824Z,2.80
2022-12-23T05:15:06.118Z,11.10
2022-12-23T05:16:05.896Z,8.70
2022-12-23T05:17:07.852Z,3.70
2022-12-23T05:18:05.825Z,3.90
2022-12-23T05:19:05.810Z,2.20
2022-12-23T05:20:05.807Z,2.60
2022-12-23T05:21:05.782Z,4.00
2022-12-23T05:22:05.785Z,8.70
2022-12-23T05:23:06.696Z,5.00
2022-12-23T05:24:05.741Z,3.60
2022-12-23T05:25:06.680Z,4.20
2022-12-23T05:26:05.732Z,3.10
2022-12-23T05:27:05.719Z,4.50
2022-12-23T05:28:05.683Z,2.60
2022-12-23T05:29:05.707Z,3.00
2022-12-23T05:30:05.699Z,2.60
2022-12-23T05:31:05.710Z,5.50
2022-12-23T05:32:05.722Z,2.60
2022-12-23T05:33:05.664Z,2.10
2022-12-23T05:34:06.738Z,8.00
2022-12-23T05:35:05.599Z,4.80
2022-12-23T05:36:05.579Z,7.70
2022-12-23T05:37:05.587Z,3.10
2022-12-23T05:38:05.550Z,2.30
2022-12-23T05:39:05.536Z,2.80
2022-12-23T05:40:05.601Z,3.20
2022-12-23T05:41:05.504Z,3.70
2022-12-23T05:42:05.512Z,2.60
2022-12-23T05:43:05.484Z,8.80
2022-12-23T05:44:05.742Z,2.60
2022-12-23T05:45:05.461Z,2.80
2022-12-23T05:46:05.583Z,2.90
2022-12-23T05:47:05.447Z,6.70
2022-12-23T05:48:06.378Z,2.90
2022-12-23T05:49:06.359Z,3.20
2022-12-23T05:50:05.396Z,7.10
2022-12-23T05:51:05.389Z,3.20
2022-12-23T05:52:05.377Z,3.60
2022-12-23T05:53:05.360Z,3.00
2022-12-23T05:54:06.297Z,3.00
2022-12-23T05:55:05.326Z,9.40
2022-12-23T05:56:05.316Z,2.90
2022-12-23T05:57:05.310Z,4.40
2022-12-23T05:58:05.309Z,6.80
2022-12-23T05:59:05.277Z,2.50
2022-12-23T06:00:05.268Z,3.20
2022-12-23T06:01:05.257Z,4.40
2022-12-23T06:02:05.373Z,3.00
2022-12-23T06:03:05.321Z,3.80
2022-12-23T06:04:05.415Z,3.40
2022-12-23T06:05:05.197Z,6.00
2022-12-23T06:06:05.182Z,8.10
2022-12-23T06:07:05.169Z,6.10
2022-12-23T06:08:05.165Z,2.90
2022-12-23T06:09:05.179Z,2.50
2022-12-23T06:10:05.129Z,2.70
2022-12-23T06:11:05.115Z,4.80
2022-12-23T06:12:05.124Z,5.70
2022-12-23T06:13:05.090Z,3.20
2022-12-23T06:14:05.090Z,4.00
2022-12-23T06:15:05.062Z,3.40
2022-12-23T06:16:05.073Z,8.30
2022-12-23T06:17:05.091Z,3.70
2022-12-23T06:18:05.021Z,2.80
2022-12-23T06:19:05.015Z,6.60
2022-12-23T06:20:04.991Z,7.20
2022-12-23T06:21:04.982Z,4.90
2022-12-23T06:22:05.372Z,6.60
2022-12-23T06:23:10.154Z,2.30
2022-12-23T06:27:01.646Z,8.80
2022-12-23T06:27:08.870Z,8.20
2022-12-23T06:28:06.395Z,6.60
2022-12-23T06:29:06.389Z,2.50
2022-12-23T06:30:06.376Z,8.00
2022-12-23T06:31:06.371Z,3.70
2022-12-23T06:32:07.391Z,2.00
2022-12-23T06:33:06.349Z,2.30
2022-12-23T06:34:06.325Z,9.10
2022-12-23T06:35:07.279Z,3.10
2022-12-23T06:36:06.329Z,2.30
2022-12-23T06:37:06.317Z,4.80
2022-12-23T06:38:10.410Z,2.00
2022-12-23T06:39:07.259Z,6.80
2022-12-23T06:40:06.246Z,2.70
2022-12-23T06:41:06.276Z,4.00
2022-12-23T06:42:06.231Z,5.50
2022-12-23T06:43:07.160Z,2.50
2022-12-23T06:44:06.191Z,2.30
2022-12-23T06:45:06.180Z,5.00
2022-12-23T06:46:06.222Z,2.30
2022-12-23T06:47:06.183Z,2.30
2022-12-23T06:48:06.140Z,5.70
2022-12-23T06:49:11.043Z,5.20
2022-12-23T06:50:07.134Z,2.10
2022-12-23T06:51:06.094Z,2.80
2022-12-23T06:52:06.100Z,2.70
2022-12-23T06:53:06.064Z,5.20
2022-12-23T06:54:06.059Z,3.30
2022-12-23T06:55:06.068Z,4.80
2022-12-23T06:56:06.075Z,5.80
2022-12-23T06:57:06.989Z,4.80
2022-12-23T06:58:06.044Z,11.40
2022-12-23T06:59:05.991Z,8.00
2022-12-23T07:00:06.097Z,4.20
2022-12-23T07:01:05.999Z,3.30
2022-12-23T07:02:06.088Z,2.40
2022-12-23T07:03:06.098Z,2.20
2022-12-23T07:04:05.931Z,2.30
2022-12-23T07:05:05.911Z,5.50
2022-12-23T07:06:05.902Z,4.90
2022-12-23T07:07:05.893Z,5.70
2022-12-23T07:08:05.897Z,2.20
2022-12-23T07:09:05.885Z,2.40
2022-12-23T07:10:05.854Z,2.50
2022-12-23T07:11:05.830Z,5.90
2022-12-23T07:12:05.823Z,8.00
2022-12-23T07:13:05.794Z,2.40
2022-12-23T07:14:05.824Z,6.40
2022-12-23T07:15:05.772Z,2.40
2022-12-23T07:16:05.818Z,2.40
2022-12-23T07:17:05.863Z,4.40
2022-12-23T07:18:05.767Z,10.00
2022-12-23T07:19:05.716Z,9.80
2022-12-23T07:20:05.729Z,2.70
2022-12-23T07:21:07.939Z,2.60
2022-12-23T07:22:06.703Z,5.90
2022-12-23T07:23:05.908Z,9.00
2022-12-23T07:24:05.677Z,9.90
2022-12-23T07:25:05.649Z,10.60
2022-12-23T07:26:05.632Z,17.90
2022-12-23T07:27:05.635Z,34.50
2022-12-23T07:28:05.616Z,67.30
2022-12-23T07:29:06.574Z,26.30
2022-12-23T07:30:05.588Z,61.00
2022-12-23T07:31:05.597Z,50.00
2022-12-23T07:32:05.608Z,30.70
2022-12-23T07:33:05.537Z,34.90
2022-12-23T07:34:05.528Z,22.30
2022-12-23T07:35:06.457Z,11.70
2022-12-23T07:36:05.515Z,10.70
2022-12-23T07:37:05.496Z,9.90
2022-12-23T07:38:05.487Z,9.40
2022-12-23T07:39:05.483Z,9.20
2022-12-23T07:40:08.739Z,6.80
2022-12-23T07:41:05.442Z,8.40
2022-12-23T07:43:06.401Z,7.00
2022-12-23T07:44:05.411Z,9.90
2022-12-23T07:45:05.410Z,7.40
2022-12-23T07:46:05.400Z,4.90
2022-12-23T07:47:05.411Z,6.90
2022-12-23T07:48:06.304Z,9.00
2022-12-23T07:49:05.340Z,12.40
2022-12-23T07:50:05.378Z,9.70
2022-12-23T07:51:05.325Z,12.50
2022-12-23T07:52:05.302Z,15.20
2022-12-23T07:53:05.299Z,11.50
2022-12-23T07:54:05.272Z,19.00
2022-12-23T07:55:07.233Z,18.60
2022-12-23T07:56:05.258Z,26.90
2022-12-23T07:57:06.183Z,18.50
2022-12-23T07:58:05.211Z,14.20
2022-12-23T07:59:05.224Z,12.10
2022-12-23T08:00:05.186Z,12.60
2022-12-23T08:01:05.254Z,15.90
2022-12-23T08:02:05.345Z,21.60
2022-12-23T08:03:05.228Z,31.60
2022-12-23T08:04:05.138Z,16.40
2022-12-23T08:05:05.158Z,11.50
2022-12-23T08:06:05.145Z,9.70
2022-12-23T08:07:05.131Z,10.60
2022-12-23T08:08:05.093Z,8.20
2022-12-23T08:09:05.083Z,9.40
2022-12-23T08:10:06.031Z,7.40
2022-12-23T08:11:05.045Z,7.80
2022-12-23T08:12:05.035Z,5.60
2022-12-23T08:13:05.022Z,5.80
2022-12-23T08:14:05.041Z,5.30
2022-12-23T08:15:05.938Z,4.10
2022-12-23T08:16:05.046Z,8.10
2022-12-23T08:17:05.056Z,4.10
2022-12-23T08:18:04.985Z,4.10
2022-12-23T08:19:04.935Z,3.70
2022-12-23T08:20:04.950Z,14.20
2022-12-23T08:21:04.919Z,5.00
2022-12-23T08:22:05.069Z,3.80
2022-12-23T08:23:04.918Z,4.30
2022-12-23T08:24:04.886Z,4.20
2022-12-23T08:25:05.609Z,4.10
2022-12-23T08:26:05.807Z,3.90
2022-12-23T08:27:04.856Z,3.70
2022-12-23T08:28:04.852Z,4.40
2022-12-23T08:29:04.824Z,3.70
2022-12-23T08:30:04.790Z,3.80
2022-12-23T08:31:04.959Z,3.50
2022-12-23T08:32:04.781Z,3.40
2022-12-23T08:33:05.699Z,3.10
2022-12-23T08:34:04.759Z,5.20
2022-12-23T08:35:04.724Z,6.90
2022-12-23T08:36:04.718Z,8.40
2022-12-23T08:37:04.734Z,6.30
2022-12-23T08:38:04.709Z,8.10
2022-12-23T08:39:04.669Z,7.80
2022-12-23T08:40:04.653Z,6.60
2022-12-23T08:41:04.634Z,7.50
2022-12-23T08:42:04.659Z,6.10
2022-12-23T08:43:04.625Z,5.70
2022-12-23T08:44:04.612Z,10.80
2022-12-23T08:45:04.585Z,5.30
2022-12-23T08:46:05.603Z,5.20
2022-12-23T08:47:04.581Z,7.10
2022-12-23T08:48:04.556Z,6.30
2022-12-23T08:49:04.565Z,6.90
2022-12-23T08:50:04.575Z,27.20
2022-12-23T08:51:04.520Z,12.90
2022-12-23T08:52:04.522Z,13.90
2022-12-23T08:53:04.509Z,8.20
2022-12-23T08:54:04.507Z,5.70
2022-12-23T08:55:04.456Z,4.60
2022-12-23T08:56:04.479Z,3.90
2022-12-23T08:57:04.470Z,3.60
2022-12-23T08:58:04.435Z,4.00
2022-12-23T08:59:04.422Z,3.10
2022-12-23T09:00:05.366Z,3.30
2022-12-23T09:01:04.437Z,3.00
2022-12-23T09:02:04.523Z,2.60
2022-12-23T09:03:04.446Z,6.50
2022-12-23T09:04:04.442Z,2.50
2022-12-23T09:05:04.353Z,2.50
2022-12-23T09:06:04.344Z,3.80
2022-12-23T09:07:04.317Z,2.50
2022-12-23T09:08:04.306Z,2.00
2022-12-23T09:09:04.279Z,1.90
2022-12-23T09:10:04.270Z,7.40
2022-12-23T09:11:04.253Z,3.70
2022-12-23T09:12:04.260Z,2.20
2022-12-23T09:13:04.224Z,6.30
2022-12-23T09:14:04.216Z,2.00
2022-12-23T09:15:04.221Z,2.10
2022-12-23T09:16:04.305Z,2.40
2022-12-23T09:17:05.157Z,7.50
2022-12-23T09:18:04.173Z,2.10
2022-12-23T09:19:04.179Z,2.20
2022-12-23T09:20:05.110Z,2.50
2022-12-23T09:21:04.159Z,2.60
2022-12-23T09:22:04.163Z,2.60
2022-12-23T09:23:04.143Z,2.30
2022-12-23T09:24:04.075Z,2.20
2022-12-23T09:25:05.500Z,2.30
2022-12-23T09:26:04.065Z,6.20
2022-12-23T09:27:04.092Z,4.40
2022-12-23T09:28:04.031Z,3.50
2022-12-23T09:29:04.032Z,3.10
2022-12-23T09:30:04.000Z,2.50
2022-12-23T09:31:04.095Z,2.40
2022-12-23T09:32:04.933Z,3.60
2022-12-23T09:33:03.981Z,2.70
2022-12-23T09:34:03.948Z,5.30
2022-12-23T09:35:04.904Z,2.80
2022-12-23T09:36:03.925Z,2.90
2022-12-23T09:37:03.944Z,5.00
2022-12-23T09:38:03.928Z,9.20
2022-12-23T09:39:03.890Z,4.70
2022-12-23T09:40:03.900Z,3.40
2022-12-23T09:41:03.857Z,7.80
2022-12-23T09:42:04.812Z,7.90
2022-12-23T09:43:03.841Z,4.30
2022-12-23T09:44:03.827Z,3.30
2022-12-23T09:45:03.809Z,3.10
2022-12-23T09:46:03.834Z,4.60
2022-12-23T09:47:03.882Z,4.80
2022-12-23T09:48:03.773Z,2.90
2022-12-23T09:49:03.779Z,4.10
2022-12-23T09:50:03.738Z,3.20
2022-12-23T09:51:03.732Z,3.00
2022-12-23T09:52:03.759Z,4.20
2022-12-23T09:53:03.700Z,7.00
2022-12-23T09:54:03.695Z,3.50
2022-12-23T09:55:03.687Z,3.20
2022-12-23T09:56:03.673Z,3.00
2022-12-23T09:57:03.663Z,7.30
2022-12-23T09:58:03.651Z,3.60
2022-12-23T09:59:03.626Z,3.00
2022-12-23T10:00:03.615Z,3.20
2022-12-23T10:01:03.608Z,3.30
2022-12-23T10:02:03.756Z,3.20
2022-12-23T10:03:03.871Z,16.40
2022-12-23T10:04:03.622Z,3.60
2022-12-23T10:05:03.544Z,6.20
2022-12-23T10:06:03.529Z,4.80
2022-12-23T10:07:03.805Z,3.20
2022-12-23T10:08:03.497Z,3.10
2022-12-23T10:09:03.488Z,3.50
2022-12-23T10:10:03.495Z,3.40
2022-12-23T10:11:03.475Z,4.40
2022-12-23T10:12:03.477Z,4.30
2022-12-23T10:13:03.531Z,3.60
2022-12-23T10:14:03.436Z,4.40
2022-12-23T10:15:03.697Z,4.50
2022-12-23T10:16:03.503Z,3.00
2022-12-23T10:17:03.426Z,2.90
2022-12-23T10:18:03.381Z,2.70
2022-12-23T10:19:03.361Z,3.20
2022-12-23T10:20:03.352Z,3.10
2022-12-23T10:21:03.385Z,2.90
2022-12-23T10:22:03.371Z,2.90
2022-12-23T10:23:03.327Z,3.10
2022-12-23T10:24:03.326Z,3.30
2022-12-23T10:25:03.292Z,3.80
2022-12-23T10:26:03.273Z,3.20
2022-12-23T10:27:03.264Z,4.60
2022-12-23T10:28:04.212Z,2.80
2022-12-23T10:29:03.246Z,3.00
2022-12-23T10:30:20.052Z,2.80
2022-12-23T10:31:38.622Z,2.90
2022-12-23T10:32:04.306Z,2.80
2022-12-23T10:33:03.198Z,3.20
2022-12-23T10:34:03.477Z,7.10
2022-12-23T10:35:03.151Z,5.90
2022-12-23T10:36:03.430Z,6.70
2022-12-23T10:37:03.222Z,6.80
2022-12-23T10:38:03.117Z,3.30
2022-12-23T10:39:03.100Z,3.50
2022-12-23T10:40:03.093Z,2.80
2022-12-23T10:41:08.816Z,5.40
2022-12-23T10:42:04.066Z,3.20
2022-12-23T10:43:03.065Z,3.10
2022-12-23T10:44:03.027Z,3.10
2022-12-23T10:45:03.020Z,3.10
2022-12-23T10:46:03.016Z,5.70
2022-12-23T10:47:03.349Z,3.70
2022-12-23T10:48:04.948Z,6.50
2022-12-23T10:49:02.977Z,2.70
2022-12-23T10:50:02.960Z,3.10
2022-12-23T10:51:02.939Z,2.80
2022-12-23T10:52:02.937Z,3.30
2022-12-23T10:53:02.918Z,3.40
2022-12-23T10:54:02.899Z,2.90
2022-12-23T10:55:02.890Z,3.40
2022-12-23T10:56:02.878Z,3.30
2022-12-23T10:57:02.889Z,4.30
2022-12-23T10:58:02.865Z,3.10
2022-12-23T10:59:02.853Z,3.40
2022-12-23T11:00:02.822Z,9.50
2022-12-23T11:01:05.730Z,2.50
2022-12-23T11:02:03.929Z,7.40
2022-12-23T11:03:02.965Z,2.50
2022-12-23T11:04:02.788Z,2.80
2022-12-23T11:05:02.800Z,3.50
2022-12-23T11:06:02.748Z,2.60
2022-12-23T11:07:34.449Z,2.60
2022-12-23T11:08:03.730Z,2.20
2022-12-23T11:09:02.708Z,2.90
2022-12-23T11:10:02.695Z,3.20
2022-12-23T11:11:02.692Z,11.60
2022-12-23T11:12:02.705Z,2.60
2022-12-23T11:13:02.660Z,2.40
2022-12-23T11:14:02.648Z,3.60
2022-12-23T11:15:02.641Z,2.40
2022-12-23T11:16:02.677Z,3.20
2022-12-23T11:17:02.633Z,2.90
2022-12-23T11:18:02.590Z,2.80
2022-12-23T11:19:02.632Z,4.30
2022-12-23T11:20:02.565Z,2.30
2022-12-23T11:21:02.615Z,3.30
2022-12-23T11:22:02.557Z,3.90
2022-12-23T11:23:02.611Z,6.60
2022-12-23T11:24:02.527Z,3.40
2022-12-23T11:25:02.514Z,2.00
2022-12-23T11:26:02.492Z,1.90
2022-12-23T11:27:02.514Z,9.00
2022-12-23T11:28:02.479Z,3.90
2022-12-23T11:29:02.468Z,2.00
2022-12-23T11:30:02.444Z,6.80
2022-12-23T11:31:02.450Z,2.30
2022-12-23T11:32:02.477Z,2.30
2022-12-23T11:33:02.413Z,2.10
2022-12-23T11:34:02.388Z,1.90
2022-12-23T11:35:02.445Z,1.90
2022-12-23T11:36:02.375Z,2.40
2022-12-23T11:37:07.268Z,3.20
2022-12-23T11:38:03.344Z,2.60
2022-12-23T11:39:02.322Z,2.50
2022-12-23T11:40:02.309Z,2.40
2022-12-23T11:41:02.298Z,1.90
2022-12-23T11:42:02.290Z,2.10
2022-12-23T11:43:02.271Z,2.50
2022-12-23T11:44:02.254Z,2.00
2022-12-23T11:45:02.246Z,6.00
2022-12-23T11:46:03.295Z,2.00
2022-12-23T11:47:02.235Z,2.20
2022-12-23T11:48:02.206Z,2.30
2022-12-23T11:49:02.220Z,2.30
2022-12-23T11:50:02.175Z,4.70
2022-12-23T11:51:02.229Z,3.40
2022-12-23T11:52:02.155Z,2.50
2022-12-23T11:53:02.155Z,3.20
2022-12-23T11:54:02.134Z,7.80
2022-12-23T11:55:02.374Z,3.80
2022-12-23T11:56:02.136Z,6.80
2022-12-23T11:57:02.226Z,2.50
2022-12-23T11:58:02.082Z,2.60
2022-12-23T11:59:02.088Z,2.00
2022-12-23T12:00:02.068Z,2.30
2022-12-23T12:01:02.040Z,4.30
2022-12-23T12:02:02.074Z,2.00
2022-12-23T12:03:02.114Z,2.30
2022-12-23T12:04:02.118Z,2.10
2022-12-23T12:05:01.997Z,2.60
2022-12-23T12:06:01.973Z,2.40
2022-12-23T12:07:01.980Z,2.20
2022-12-23T12:08:01.946Z,2.60
2022-12-23T12:09:01.931Z,2.00
2022-12-23T12:10:01.922Z,2.30
2022-12-23T12:11:01.913Z,3.10
2022-12-23T12:12:01.911Z,3.70
2022-12-23T12:13:01.890Z,2.80
2022-12-23T12:14:01.910Z,6.30
2022-12-23T12:15:01.863Z,2.90
2022-12-23T12:16:01.857Z,5.40
2022-12-23T12:17:01.900Z,2.40
2022-12-23T12:18:01.805Z,2.90
2022-12-23T12:19:01.810Z,2.40
2022-12-23T12:20:01.795Z,2.20
2022-12-23T12:21:01.786Z,2.40
2022-12-23T12:22:01.764Z,2.70
2022-12-23T12:23:01.757Z,7.40
2022-12-23T12:24:17.954Z,2.80
2022-12-23T12:25:02.769Z,2.80
2022-12-23T12:26:01.730Z,3.40
2022-12-23T12:27:01.708Z,10.30
2022-12-23T12:28:01.686Z,2.80
2022-12-23T12:29:01.677Z,2.70
2022-12-23T12:30:07.707Z,3.30
2022-12-23T12:31:02.763Z,3.60
2022-12-23T12:32:01.635Z,9.40
2022-12-23T12:33:01.629Z,4.80
2022-12-23T12:34:01.608Z,4.30
2022-12-23T12:35:01.597Z,3.90
2022-12-23T12:36:05.281Z,3.80
2022-12-23T12:37:01.644Z,5.20
2022-12-23T12:38:01.550Z,3.80
2022-12-23T12:39:01.545Z,3.00
2022-12-23T12:40:01.554Z,6.10
2022-12-23T12:41:01.530Z,2.60
2022-12-23T12:42:05.606Z,2.40
2022-12-23T12:43:01.480Z,2.60
2022-12-23T12:44:01.469Z,4.30
2022-12-23T12:45:01.501Z,4.60
2022-12-23T12:46:01.508Z,6.30
2022-12-23T12:47:04.154Z,3.00
2022-12-23T12:48:12.789Z,3.30
2022-12-23T12:49:02.425Z,2.60
2022-12-23T12:50:01.391Z,8.60
2022-12-23T12:51:01.418Z,2.60
2022-12-23T12:52:01.403Z,4.00
2022-12-23T12:53:01.358Z,3.00
2022-12-23T12:54:05.635Z,3.60
2022-12-23T12:55:01.355Z,4.80
2022-12-23T12:56:01.314Z,3.70
2022-12-23T12:57:01.314Z,3.30
2022-12-23T12:58:01.287Z,2.50
2022-12-23T12:59:01.294Z,4.30
2022-12-23T13:00:06.160Z,3.10
2022-12-23T13:01:02.301Z,2.70
2022-12-23T13:02:01.274Z,8.00
2022-12-23T13:03:01.363Z,11.80
2022-12-23T13:04:01.212Z,9.30
2022-12-23T13:05:01.207Z,8.00
2022-12-23T13:06:01.190Z,6.30
2022-12-23T13:07:01.191Z,4.30
2022-12-23T13:08:01.162Z,3.70
2022-12-23T13:09:01.157Z,3.10
2022-12-23T13:10:01.131Z,3.10
2022-12-23T13:11:01.134Z,5.60
2022-12-23T13:12:01.113Z,2.80
2022-12-23T13:13:01.103Z,3.20
2022-12-23T13:14:01.083Z,2.90
2022-12-23T13:15:01.087Z,2.90
2022-12-23T13:16:01.087Z,2.40